Aérodrome :
LOGIN :

S'inscrire | Disclaimer

   EN    FR    IT 

 










Légende :    VFR   VFR Marginal   IFR   IFR Intensif   IFR Très Intensif
Visi : 
Plafond : 
>= 8 km
>= 3000ft
5 à 8 km
1000 à 3000 ft
1500m à 5 km
500 à 1000 ft
800 à 1500m
200 à 500 ft
< 800m
< 200 ft
Symboles :   Orages  Brouillard  Fortes neiges  Fortes précipitations  Vent > 20 kt
SIGMETs :   Divers  Orages  Givrage  Turbulence  Onde Orograph.  Cendres Volcan.







- Altitude de l'aérodrome : 1299 ft


EDTY - Adolf Würth

DERNIER METAR :
  • 180650Z 10004KT 7000 NSC 06/06 Q1020

METARs EXPIRÉS :
  • 180620Z 08003KT 7000 SKC 05/05 Q1020
  • 180550Z 08004KT 7000 SKC 05/05 Q1020
  • 180520Z 10003KT 8000 SKC 05/05 Q1019
  • 180450Z 08004KT 7000 SKC 05/05 Q1019
  • 180420Z 10002KT 7000 SKC 06/06 Q1019

TAF TAF EDTY
Valide du 18 à 06h jusqu'au 18 à 15h UTC


180500Z 1806/1815 VRB03KT 7000 NSC
BECMG 1808/1810 04007KT
Pas de NOTAMs connus pour ce terrain.



MET'MAP, la Météo Aéronautique d'un coup d'oeil ! - Copyright ORBIFLY Décembre 2007 - Disclaimer

ORBIFLY MET'MAP TEAM :

Programmation & Développement : Alexandra Zaïnal
Conception & Développement : Baudouin d'Aumeries
Co-Programmation & Développement : Marc-Olivier Méhu
Soutien technique & logistique : Manuel Goepfert

Contact : metmap@orbifly.com




SOURCES & CREDITS :

   NOAA